Pine Forge, PA (19548)

11:53 AM EDT on August 27, 2014 (GMT -0400)
Gilbertsville | Change Station
CLOSE
Current Station
Personal Weather Station
Location: Gilbertsville, PA
Elevation: 338 ft
Nearby Weather Stations

Elev 338 ft 40.30 °N, 75.62 °W | Updated 10 seconds ago

Clear
Clear
83.1 °F
Feels Like 86 °F
N
2.0
Wind Variable Wind from SW
Gusts 6.0 mph

Today
High -- | Low -- °F
--% Chance of Precip.
Yesterday
High -- | Low -- °F
Precip. -- in
6:25 AM 7:42 PM
Waxing Crescent, 4% visible
Pressure 30.06 in
Visibility 10.0 miles
Clouds Clear
Heat Index 86 °F
Dew Point 68 °F
Humidity 61%
Rainfall 0.00 in
Snow Depth Not available.
UV 5.2 out of 12
Pollen 9.70 out of 12
Ozone Good
PM2.5 Moderate
Flu Activity Not available.
METAR KPTW 271354Z AUTO 23004KT 10SM CLR 24/18 A3007 RMK AO2 SLP179 T02440178

More Conditions Fewer Conditions

Pressure 30.06 in
Visibility 10.0 miles
Clouds Clear
Heat Index 86 °F
Dew Point 68 °F
Humidity 61%
Rainfall 0.00 in
Snow Depth Not available.
UV 5.2 out of 12
Pollen 9.70 out of 12
Ozone Good
PM2.5 Moderate
Flu Activity Not available.
METAR KPTW 271354Z AUTO 23004KT 10SM CLR 24/18 A3007 RMK AO2 SLP179 T02440178

More Conditions Fewer Conditions

10-Day Weather Forecast

Almanac

Astronomy

Aug. 27, 2014 Rise Set
Actual Time 6:25 AM EDT 7:42 PM EDT
Civil Twilight 5:57 AM EDT 8:10 PM EDT
Nautical Twilight 5:23 AM EDT 8:44 PM EDT
Astronomical Twilight 4:47 AM EDT 9:19 PM EDT
Moon 8:19 AM EDT 8:33 PM EDT
Length of Visible Light 14h 13m
Length of Day
13h 16m
Tomorrow will be 2m 31s shorter.
Waxing Crescent, 4% of the Moon is Illuminated
Today
Waxing Crescent
Sep 2
First Quarter
Sep 8
Full
Sep 15
Last Quarter
Sep 24
New

Today's Extremes

State Highs State Lows

Community

WunderPhotos

Upload Photos

1,747,711 photos uploaded!

Nearby

Air Quality

  Air Quality AQ Index Pollutant
Yesterday Moderate
OZONE
Yesterday Moderate
PM2.5
Current Moderate
PM2.5
Current Good
OZONE
Wednesday Moderate
OZONE
Wednesday Moderate
PM2.5
Thursday Good
OZONE
Thursday Good
PM2.5

Snow Depth

Station Depth Elevation
No new snow has been reported.

Earthquake Activity

City Distance Mag. Time & Date
No recent earthquake activity has been reported nearby.
Minimum magnitude displayed is 2.5.

Coastal Water Temperatures

Place Temperature
No Stations Reporting

Nearby Weather Stations